Genie Cenac — WDH8300 — position and weather

sailwx.info

Track history (hours):
 
Tides and Currents Weather Stations Pressure Air Temp Water Temp Dewpoint Dewpoint Depression Visibility Wind Speed Wind Dir Waves Ship Positions

Genie Cenac

Owner: Cenac Marine Services, Houma, LA. More information available from US FCC via Universal Licensing System and Coast Guard Vessel Documentation Center.

Last reported at 2017-Dec-11 19:39 UTC. Time now 2017-Dec-18 12:29 UTC.
Position N 30°06' W 093°18'.

Length 22 m; draft 3.7 m.

Type: Tug. MMSI: 367656670.

Date/timePositionNaut miles runAvg speedWind from/ knotsBaromVisibWave heightAir tempDewpointWater temp
2017-Dec-11 19:39N 30°06' W 093°18'0 0.1
2017-Dec-11 19:30N 30°06' W 093°18'0 0.0
2017-Dec-11 19:00N 30°06' W 093°18'0 0.0
2017-Dec-11 18:30N 30°06' W 093°18'1 2.5
2017-Dec-11 18:00N 30°05' W 093°20'3 5.2
2017-Dec-11 17:30N 30°04' W 093°22'3 5.9
2017-Dec-11 17:00N 30°04' W 093°25'1 2.5
2017-Dec-11 16:30N 30°04' W 093°24'3 5.1
2017-Dec-11 16:00N 30°04' W 093°21'2 3.7
2017-Dec-11 15:28N 30°06' W 093°20'2 1.9
2017-Dec-11 14:25N 30°08' W 093°20'0 0.4
2017-Dec-11 13:58N 30°08' W 093°19'0 0.0
2017-Dec-11 13:28N 30°08' W 093°19'0 0.0
2017-Dec-11 12:58N 30°08' W 093°19'0 0.0
2017-Dec-11 12:28N 30°08' W 093°19'0 0.0
2017-Dec-11 11:58N 30°08' W 093°19'0 0.0
2017-Dec-11 11:28N 30°08' W 093°19'0 0.0
2017-Dec-11 10:58N 30°08' W 093°19'0 0.0
2017-Dec-11 10:28N 30°08' W 093°19'0 0.0
2017-Dec-11 09:58N 30°08' W 093°19'0 0.0
2017-Dec-11 09:31N 30°08' W 093°19'0 0.0
2017-Dec-11 08:58N 30°08' W 093°19'0 0.0
2017-Dec-11 08:28N 30°08' W 093°19'0 0.0
2017-Dec-11 07:58N 30°08' W 093°19'0 0.0
2017-Dec-11 07:28N 30°08' W 093°19'0 0.0
2017-Dec-11 06:58N 30°08' W 093°19'0 0.0
2017-Dec-11 06:28N 30°08' W 093°19'0 0.0
2017-Dec-11 05:58N 30°08' W 093°19'0 0.0
2017-Dec-11 05:28N 30°08' W 093°19'0 0.0
2017-Dec-11 04:58N 30°08' W 093°19'0 0.0
2017-Dec-11 04:28N 30°08' W 093°19'0 0.0
2017-Dec-11 03:58N 30°08' W 093°19'0 0.0
2017-Dec-11 03:31N 30°08' W 093°19'0 0.0
2017-Dec-11 02:58N 30°08' W 093°19'0 0.0
2017-Dec-11 02:31N 30°08' W 093°19'0 0.0
2017-Dec-11 01:58N 30°08' W 093°19'0 0.0
2017-Dec-11 01:31N 30°08' W 093°19'0 0.0
2017-Dec-11 00:58N 30°08' W 093°19'0 0.0
2017-Dec-11 00:28N 30°08' W 093°19'0 0.0
2017-Dec-11 00:01N 30°08' W 093°19'0 0.0
2017-Dec-10 23:28N 30°08' W 093°19'0 0.0
2017-Dec-10 22:58N 30°08' W 093°19'0 0.0
2017-Dec-10 22:28N 30°08' W 093°19'0 0.0
2017-Dec-10 21:57N 30°08' W 093°19'0 0.0
2017-Dec-10 21:31N 30°08' W 093°19'0 0.0
2017-Dec-10 20:58N 30°08' W 093°19'0 0.0
2017-Dec-10 20:31N 30°08' W 093°19'0 0.0
2017-Dec-10 19:58N 30°08' W 093°19'0 0.0
2017-Dec-10 19:28N 30°08' W 093°19'0 0.0
2017-Dec-10 18:58N 30°08' W 093°19'0 0.0
2017-Dec-10 18:28N 30°08' W 093°19'0 0.0
2017-Dec-10 17:57N 30°08' W 093°19'0 0.1
2017-Dec-10 17:30N 30°08' W 093°19'1 1.2
2017-Dec-10 17:00N 30°08' W 093°20'0 0.1
2017-Dec-10 16:29N 30°08' W 093°20'0 0.0
2017-Dec-10 16:00N 30°08' W 093°20'0 0.0
2017-Dec-10 15:29N 30°08' W 093°20'0 0.0
2017-Dec-10 15:00N 30°08' W 093°20'0 1.0
2017-Dec-10 14:30N 30°07' W 093°20'2 4.1
2017-Dec-10 14:00N 30°05' W 093°20'0 0.7
2017-Dec-10 13:28N 30°05' W 093°20'0 0.0
2017-Dec-10 12:58N 30°05' W 093°20'0 0.0
2017-Dec-10 12:28N 30°05' W 093°20'0 0.0
2017-Dec-10 11:58N 30°05' W 093°20'0 0.0
2017-Dec-10 11:28N 30°05' W 093°20'0 0.0
2017-Dec-10 10:58N 30°05' W 093°20'0 0.0
2017-Dec-10 10:28N 30°05' W 093°20'0 0.0
2017-Dec-10 09:58N 30°05' W 093°20'0 0.0
2017-Dec-10 09:28N 30°05' W 093°20'0 0.0
2017-Dec-10 08:58N 30°05' W 093°20'0 0.0
2017-Dec-10 08:28N 30°05' W 093°20'0 0.0
2017-Dec-10 07:58N 30°05' W 093°20'0 0.0
2017-Dec-10 07:28N 30°05' W 093°20'0 0.0
2017-Dec-10 06:58N 30°05' W 093°20'0 0.0
2017-Dec-10 06:28N 30°05' W 093°20'0 0.0
2017-Dec-10 05:58N 30°05' W 093°20'0 0.0
2017-Dec-10 05:28N 30°05' W 093°20'0 0.0
2017-Dec-10 04:58N 30°05' W 093°20'0 0.0
2017-Dec-10 04:28N 30°05' W 093°20'0 0.0
2017-Dec-10 03:58N 30°05' W 093°20'0 0.0
2017-Dec-10 03:25N 30°05' W 093°20'0 0.0
2017-Dec-10 02:58N 30°05' W 093°20'0 0.0
2017-Dec-10 02:28N 30°05' W 093°20'0 0.0
2017-Dec-10 01:58N 30°05' W 093°20'0 0.0
2017-Dec-10 01:28N 30°05' W 093°20'0 0.0
2017-Dec-10 00:58N 30°05' W 093°20'0 0.0
2017-Dec-10 00:28N 30°05' W 093°20'0 0.0
2017-Dec-09 23:58N 30°05' W 093°20'0 0.0
2017-Dec-09 23:28N 30°05' W 093°20'0 0.0
2017-Dec-09 22:58N 30°05' W 093°20'0 0.0
2017-Dec-09 22:28N 30°05' W 093°20'0 0.0
2017-Dec-09 21:58N 30°05' W 093°20'0 0.0
2017-Dec-09 21:28N 30°05' W 093°20'0 0.0
2017-Dec-09 20:58N 30°05' W 093°20'0 0.0
2017-Dec-09 20:28N 30°05' W 093°20'0 0.0
2017-Dec-09 19:58N 30°05' W 093°20'0 0.0
2017-Dec-09 19:28N 30°05' W 093°20'0 0.0
2017-Dec-09 18:58N 30°05' W 093°20'0 0.7
2017-Dec-09 18:28N 30°05' W 093°20'1 1.9
2017-Dec-09 17:59N 30°06' W 093°19'0 0.2
2017-Dec-09 17:29N 30°06' W 093°19'0 0.0
2017-Dec-09 16:59N 30°06' W 093°19'0 0.0
2017-Dec-09 16:29N 30°06' W 093°19'0 0.0
2017-Dec-09 15:59N 30°06' W 093°19'0 0.0
2017-Dec-09 15:29N 30°06' W 093°19'0 0.0
2017-Dec-09 14:59N 30°06' W 093°19'0 0.1
2017-Dec-09 14:29N 30°06' W 093°19'0 0.6
2017-Dec-09 13:59N 30°06' W 093°19'0 0.1
2017-Dec-09 13:29N 30°06' W 093°19'1 2.5
2017-Dec-09 13:00N 30°05' W 093°20'2 3.2
2017-Dec-09 12:31N 30°04' W 093°21'1 2.4
2017-Dec-09 12:00N 30°04' W 093°23'0 0.1
2017-Dec-09 11:30N 30°04' W 093°23'0 0.5
2017-Dec-09 11:00N 30°04' W 093°23'2 4.0
2017-Dec-09 10:30N 30°04' W 093°25'2 4.4
2017-Dec-09 10:00N 30°04' W 093°28'2 4.4
2017-Dec-09 09:30N 30°04' W 093°31'2 4.4
2017-Dec-09 09:00N 30°04' W 093°33'2 4.5
2017-Dec-09 08:30N 30°04' W 093°36'2 4.8
2017-Dec-09 08:00N 30°04' W 093°38'3 5.5
2017-Dec-09 07:30N 30°03' W 093°42'  
2017-Dec-02 15:28N 30°04' W 093°37'3 6.2
2017-Dec-02 15:00N 30°04' W 093°33'3 5.2
2017-Dec-02 14:30N 30°04' W 093°30'2 4.9
2017-Dec-02 14:00N 30°04' W 093°27'2 4.0
2017-Dec-02 13:30N 30°04' W 093°25'3 5.5
2017-Dec-02 13:00N 30°04' W 093°22'0 0.0
2017-Dec-02 12:31N 30°04' W 093°22'0 0.0
2017-Dec-02 12:00N 30°04' W 093°22'0 0.0
2017-Dec-02 11:30N 30°04' W 093°22'0 0.0
2017-Dec-02 11:00N 30°04' W 093°22'0 0.0
2017-Dec-02 10:30N 30°04' W 093°22'0 0.0
2017-Dec-02 10:00N 30°04' W 093°22'0 0.0
2017-Dec-02 09:30N 30°04' W 093°22'0 0.0
2017-Dec-02 09:01N 30°04' W 093°22'1 1.7
2017-Dec-02 08:30N 30°04' W 093°21'2 4.5
2017-Dec-02 08:00N 30°06' W 093°19'2 3.2
2017-Dec-02 07:31N 30°05' W 093°18'1 1.3
2017-Dec-02 07:00N 30°05' W 093°17'0 0.5
2017-Dec-02 06:31N 30°05' W 093°17'1 1.5
2017-Dec-02 06:00N 30°04' W 093°16'2 3.5
2017-Dec-02 05:30N 30°02' W 093°16'0 0.0
2017-Dec-02 05:00N 30°02' W 093°16'1 2.5
2017-Dec-02 04:30N 30°02' W 093°14'2 4.7
2017-Dec-02 04:00N 29°60' W 093°13'0 0.4
2017-Dec-02 03:30N 29°59' W 093°13'0 0.9
2017-Dec-02 03:00N 29°59' W 093°13'3 5.9
2017-Dec-02 02:30N 29°57' W 093°10'3 5.8
2017-Dec-02 02:00N 29°56' W 093°07'  
Track history (hours):
 
Tides and Currents Weather Stations Pressure Air Temp Water Temp Dewpoint Dewpoint Depression Visibility Wind Speed Wind Dir Waves Ship Positions

Genie Cenac

Owner: Cenac Marine Services, Houma, LA. More information available from US FCC via Universal Licensing System and Coast Guard Vessel Documentation Center.

Last reported at 2017-Dec-11 19:39 UTC. Time now 2017-Dec-18 12:29 UTC.
Position N 30°06' W 093°18'.

Length 22 m; draft 3.7 m.

Type: Tug. MMSI: 367656670.

Date/timePositionNaut miles runAvg speedWind from/ knotsBaromVisibWave heightAir tempDewpointWater temp
2017-Dec-11 19:39N 30°06' W 093°18'0 0.1
2017-Dec-11 19:30N 30°06' W 093°18'0 0.0
2017-Dec-11 19:00N 30°06' W 093°18'0 0.0
2017-Dec-11 18:30N 30°06' W 093°18'1 2.5
2017-Dec-11 18:00N 30°05' W 093°20'3 5.2
2017-Dec-11 17:30N 30°04' W 093°22'3 5.9
2017-Dec-11 17:00N 30°04' W 093°25'1 2.5
2017-Dec-11 16:30N 30°04' W 093°24'3 5.1
2017-Dec-11 16:00N 30°04' W 093°21'2 3.7
2017-Dec-11 15:28N 30°06' W 093°20'2 1.9
2017-Dec-11 14:25N 30°08' W 093°20'0 0.4
2017-Dec-11 13:58N 30°08' W 093°19'0 0.0
2017-Dec-11 13:28N 30°08' W 093°19'0 0.0
2017-Dec-11 12:58N 30°08' W 093°19'0 0.0
2017-Dec-11 12:28N 30°08' W 093°19'0 0.0
2017-Dec-11 11:58N 30°08' W 093°19'0 0.0
2017-Dec-11 11:28N 30°08' W 093°19'0 0.0
2017-Dec-11 10:58N 30°08' W 093°19'0 0.0
2017-Dec-11 10:28N 30°08' W 093°19'0 0.0
2017-Dec-11 09:58N 30°08' W 093°19'0 0.0
2017-Dec-11 09:31N 30°08' W 093°19'0 0.0
2017-Dec-11 08:58N 30°08' W 093°19'0 0.0
2017-Dec-11 08:28N 30°08' W 093°19'0 0.0
2017-Dec-11 07:58N 30°08' W 093°19'0 0.0
2017-Dec-11 07:28N 30°08' W 093°19'0 0.0
2017-Dec-11 06:58N 30°08' W 093°19'0 0.0
2017-Dec-11 06:28N 30°08' W 093°19'0 0.0
2017-Dec-11 05:58N 30°08' W 093°19'0 0.0
2017-Dec-11 05:28N 30°08' W 093°19'0 0.0
2017-Dec-11 04:58N 30°08' W 093°19'0 0.0
2017-Dec-11 04:28N 30°08' W 093°19'0 0.0
2017-Dec-11 03:58N 30°08' W 093°19'0 0.0
2017-Dec-11 03:31N 30°08' W 093°19'0 0.0
2017-Dec-11 02:58N 30°08' W 093°19'0 0.0
2017-Dec-11 02:31N 30°08' W 093°19'0 0.0
2017-Dec-11 01:58N 30°08' W 093°19'0 0.0
2017-Dec-11 01:31N 30°08' W 093°19'0 0.0
2017-Dec-11 00:58N 30°08' W 093°19'0 0.0
2017-Dec-11 00:28N 30°08' W 093°19'0 0.0
2017-Dec-11 00:01N 30°08' W 093°19'0 0.0
2017-Dec-10 23:28N 30°08' W 093°19'0 0.0
2017-Dec-10 22:58N 30°08' W 093°19'0 0.0
2017-Dec-10 22:28N 30°08' W 093°19'0 0.0
2017-Dec-10 21:57N 30°08' W 093°19'0 0.0
2017-Dec-10 21:31N 30°08' W 093°19'0 0.0
2017-Dec-10 20:58N 30°08' W 093°19'0 0.0
2017-Dec-10 20:31N 30°08' W 093°19'0 0.0
2017-Dec-10 19:58N 30°08' W 093°19'0 0.0
2017-Dec-10 19:28N 30°08' W 093°19'0 0.0
2017-Dec-10 18:58N 30°08' W 093°19'0 0.0
2017-Dec-10 18:28N 30°08' W 093°19'0 0.0
2017-Dec-10 17:57N 30°08' W 093°19'0 0.1
2017-Dec-10 17:30N 30°08' W 093°19'1 1.2
2017-Dec-10 17:00N 30°08' W 093°20'0 0.1
2017-Dec-10 16:29N 30°08' W 093°20'0 0.0
2017-Dec-10 16:00N 30°08' W 093°20'0 0.0
2017-Dec-10 15:29N 30°08' W 093°20'0 0.0
2017-Dec-10 15:00N 30°08' W 093°20'0 1.0
2017-Dec-10 14:30N 30°07' W 093°20'2 4.1
2017-Dec-10 14:00N 30°05' W 093°20'0 0.7
2017-Dec-10 13:28N 30°05' W 093°20'0 0.0
2017-Dec-10 12:58N 30°05' W 093°20'0 0.0
2017-Dec-10 12:28N 30°05' W 093°20'0 0.0
2017-Dec-10 11:58N 30°05' W 093°20'0 0.0
2017-Dec-10 11:28N 30°05' W 093°20'0 0.0
2017-Dec-10 10:58N 30°05' W 093°20'0 0.0
2017-Dec-10 10:28N 30°05' W 093°20'0 0.0
2017-Dec-10 09:58N 30°05' W 093°20'0 0.0
2017-Dec-10 09:28N 30°05' W 093°20'0 0.0
2017-Dec-10 08:58N 30°05' W 093°20'0 0.0
2017-Dec-10 08:28N 30°05' W 093°20'0 0.0
2017-Dec-10 07:58N 30°05' W 093°20'0 0.0
2017-Dec-10 07:28N 30°05' W 093°20'0 0.0
2017-Dec-10 06:58N 30°05' W 093°20'0 0.0
2017-Dec-10 06:28N 30°05' W 093°20'0 0.0
2017-Dec-10 05:58N 30°05' W 093°20'0 0.0
2017-Dec-10 05:28N 30°05' W 093°20'0 0.0
2017-Dec-10 04:58N 30°05' W 093°20'0 0.0
2017-Dec-10 04:28N 30°05' W 093°20'0 0.0
2017-Dec-10 03:58N 30°05' W 093°20'0 0.0
2017-Dec-10 03:25N 30°05' W 093°20'0 0.0
2017-Dec-10 02:58N 30°05' W 093°20'0 0.0
2017-Dec-10 02:28N 30°05' W 093°20'0 0.0
2017-Dec-10 01:58N 30°05' W 093°20'0 0.0
2017-Dec-10 01:28N 30°05' W 093°20'0 0.0
2017-Dec-10 00:58N 30°05' W 093°20'0 0.0
2017-Dec-10 00:28N 30°05' W 093°20'0 0.0
2017-Dec-09 23:58N 30°05' W 093°20'0 0.0
2017-Dec-09 23:28N 30°05' W 093°20'0 0.0
2017-Dec-09 22:58N 30°05' W 093°20'0 0.0
2017-Dec-09 22:28N 30°05' W 093°20'0 0.0
2017-Dec-09 21:58N 30°05' W 093°20'0 0.0
2017-Dec-09 21:28N 30°05' W 093°20'0 0.0
2017-Dec-09 20:58N 30°05' W 093°20'0 0.0
2017-Dec-09 20:28N 30°05' W 093°20'0 0.0
2017-Dec-09 19:58N 30°05' W 093°20'0 0.0
2017-Dec-09 19:28N 30°05' W 093°20'0 0.0
2017-Dec-09 18:58N 30°05' W 093°20'0 0.7
2017-Dec-09 18:28N 30°05' W 093°20'1 1.9
2017-Dec-09 17:59N 30°06' W 093°19'0 0.2
2017-Dec-09 17:29N 30°06' W 093°19'0 0.0
2017-Dec-09 16:59N 30°06' W 093°19'0 0.0
2017-Dec-09 16:29N 30°06' W 093°19'0 0.0
2017-Dec-09 15:59N 30°06' W 093°19'0 0.0
2017-Dec-09 15:29N 30°06' W 093°19'0 0.0
2017-Dec-09 14:59N 30°06' W 093°19'0 0.1
2017-Dec-09 14:29N 30°06' W 093°19'0 0.6
2017-Dec-09 13:59N 30°06' W 093°19'0 0.1
2017-Dec-09 13:29N 30°06' W 093°19'1 2.5
2017-Dec-09 13:00N 30°05' W 093°20'2 3.2
2017-Dec-09 12:31N 30°04' W 093°21'1 2.4
2017-Dec-09 12:00N 30°04' W 093°23'0 0.1
2017-Dec-09 11:30N 30°04' W 093°23'0 0.5
2017-Dec-09 11:00N 30°04' W 093°23'2 4.0
2017-Dec-09 10:30N 30°04' W 093°25'2 4.4
2017-Dec-09 10:00N 30°04' W 093°28'2 4.4
2017-Dec-09 09:30N 30°04' W 093°31'2 4.4
2017-Dec-09 09:00N 30°04' W 093°33'2 4.5
2017-Dec-09 08:30N 30°04' W 093°36'2 4.8
2017-Dec-09 08:00N 30°04' W 093°38'3 5.5
2017-Dec-09 07:30N 30°03' W 093°42'  
2017-Dec-02 15:28N 30°04' W 093°37'3 6.2
2017-Dec-02 15:00N 30°04' W 093°33'3 5.2
2017-Dec-02 14:30N 30°04' W 093°30'2 4.9
2017-Dec-02 14:00N 30°04' W 093°27'2 4.0
2017-Dec-02 13:30N 30°04' W 093°25'3 5.5
2017-Dec-02 13:00N 30°04' W 093°22'0 0.0
2017-Dec-02 12:31N 30°04' W 093°22'0 0.0
2017-Dec-02 12:00N 30°04' W 093°22'0 0.0
2017-Dec-02 11:30N 30°04' W 093°22'0 0.0
2017-Dec-02 11:00N 30°04' W 093°22'0 0.0
2017-Dec-02 10:30N 30°04' W 093°22'0 0.0
2017-Dec-02 10:00N 30°04' W 093°22'0 0.0
2017-Dec-02 09:30N 30°04' W 093°22'0 0.0
2017-Dec-02 09:01N 30°04' W 093°22'1 1.7
2017-Dec-02 08:30N 30°04' W 093°21'2 4.5
2017-Dec-02 08:00N 30°06' W 093°19'2 3.2
2017-Dec-02 07:31N 30°05' W 093°18'1 1.3
2017-Dec-02 07:00N 30°05' W 093°17'0 0.5
2017-Dec-02 06:31N 30°05' W 093°17'1 1.5
2017-Dec-02 06:00N 30°04' W 093°16'2 3.5
2017-Dec-02 05:30N 30°02' W 093°16'0 0.0
2017-Dec-02 05:00N 30°02' W 093°16'1 2.5
2017-Dec-02 04:30N 30°02' W 093°14'2 4.7
2017-Dec-02 04:00N 29°60' W 093°13'0 0.4
2017-Dec-02 03:30N 29°59' W 093°13'0 0.9
2017-Dec-02 03:00N 29°59' W 093°13'3 5.9
2017-Dec-02 02:30N 29°57' W 093°10'3 5.8
2017-Dec-02 02:00N 29°56' W 093°07'  

Dump ship's entire track history